CheckWX is a tool to help pilots better visualize weather data.  It is not intended as a substitute for an official pre-flight weather briefing.

21:59:35 UTC

MROC METAR
Juan Santamaria International Airport
San Jose, Costa Rica
Current

60 mins ago

MROC 132100Z 27004KT 230V300 9999 FEW015 OVC100 32/20 A3000 NOSIG
Observed
Jul-13 @ 21:00 UTC
Wind
  • 270° at 4 KTS
Visibility
10,000+ meters
Flight Rules
VFR
Cloud Levels
  • Few at 1,500' AGL
  • Overcast at 10,000' AGL
Temperature
32°C / 90°F
Dewpoint
20°C / 68°F
Humidity
49%
Altimeter
30" Hg
Pressure
1015.92 hPa
Previous

2 hours ago

MROC 132000Z 29006KT 9999 FEW015 SCT050 OVC100 22/20 A3002 NOSIG
Observed
Jul-13 @ 20:00 UTC
Wind
  • 290° at 6 KTS
Visibility
10,000+ meters
Flight Rules
VFR
Cloud Levels
  • Few at 1,500' AGL
  • Scattered at 5,000' AGL
  • Overcast at 10,000' AGL
Temperature
22°C / 72°F
Dewpoint
20°C / 68°F
Humidity
88%
Altimeter
30.02" Hg
Pressure
1016.62 hPa
Previous

3 hours ago

MROC 131900Z 21006KT CAVOK 22/20 A3004 NOSIG
Observed
Jul-13 @ 19:00 UTC
Wind
  • 210° at 6 KTS
Visibility
10,000+ meters
Flight Rules
VFR
Cloud Levels
  • Clear skies
Temperature
22°C / 72°F
Dewpoint
20°C / 68°F
Humidity
88%
Altimeter
30.04" Hg
Pressure
1017.32 hPa